Galich, Russia
Current Conditions -  °F | °C
As of 12:00 AM on Saturday 01 Nov 2014 (Local Time) from UUDL Reporting Station
Overcast Overcast  
Wind Chill: 32°   Ceiling: 4300
Heat Index: 36°   Visibility: 6mi
Dew Point: 32°   Wind: 4mph
Humidity: 87%   Direction: 280°W
Pressure: 30.03"   Gusts: NA
Location:  58.38°N, 42.35°E
Report Text: UUDL 312100Z 28002MPS 9999 OVC043 02/00 Q1017 NOSIG RMK QFE75423190055
Loading
Personal Weather Stations






























Interactive Weather Map
Tropical Storm Tracking
New forecast layout! Learn more

10-Day Weather Forecast

Advertisements
Track Severe Weather on mobile